sensor_id;sensor_type;location;lat;lon;timestamp;pressure;altitude;pressure_sealevel;temperature;humidity
47883;BME280;37739;50.350;7.578;2023-08-06T00:01:21;98699.94;;;16.91;82.02
47883;BME280;37739;50.350;7.578;2023-08-06T00:03:50;98695.63;;;16.86;82.31
47883;BME280;37739;50.350;7.578;2023-08-06T00:06:15;98697.38;;;16.83;82.55
47883;BME280;37739;50.350;7.578;2023-08-06T00:08:43;98702.53;;;16.80;82.49
47883;BME280;37739;50.350;7.578;2023-08-06T00:11:08;98705.16;;;16.78;82.77
47883;BME280;37739;50.350;7.578;2023-08-06T00:13:37;98706.00;;;16.76;82.93
47883;BME280;37739;50.350;7.578;2023-08-06T00:16:10;98704.31;;;16.73;83.07
47883;BME280;37739;50.350;7.578;2023-08-06T00:18:38;98700.03;;;16.67;82.92
47883;BME280;37739;50.350;7.578;2023-08-06T00:21:04;98695.75;;;16.62;83.29
47883;BME280;37739;50.350;7.578;2023-08-06T00:23:31;98699.19;;;16.61;83.88
47883;BME280;37739;50.350;7.578;2023-08-06T00:25:59;98697.47;;;16.58;84.04
47883;BME280;37739;50.350;7.578;2023-08-06T00:28:26;98685.38;;;16.60;83.74
47883;BME280;37739;50.350;7.578;2023-08-06T00:30:57;98690.56;;;16.63;83.45
47883;BME280;37739;50.350;7.578;2023-08-06T00:33:25;98684.53;;;16.61;83.72
47883;BME280;37739;50.350;7.578;2023-08-06T00:35:51;98676.75;;;16.60;83.88
47883;BME280;37739;50.350;7.578;2023-08-06T00:38:18;98672.44;;;16.60;83.76
47883;BME280;37739;50.350;7.578;2023-08-06T00:40:44;98675.91;;;16.59;84.19
47883;BME280;37739;50.350;7.578;2023-08-06T00:43:09;98675.91;;;16.59;84.14
47883;BME280;37739;50.350;7.578;2023-08-06T00:45:37;98666.41;;;16.57;84.26
47883;BME280;37739;50.350;7.578;2023-08-06T00:48:05;98669.88;;;16.56;84.53
47883;BME280;37739;50.350;7.578;2023-08-06T00:50:32;98662.13;;;16.56;84.29
47883;BME280;37739;50.350;7.578;2023-08-06T00:52:57;98669.03;;;16.54;84.63
47883;BME280;37739;50.350;7.578;2023-08-06T00:55:25;98668.16;;;16.55;84.48
47883;BME280;37739;50.350;7.578;2023-08-06T00:57:51;98667.28;;;16.53;84.55
47883;BME280;37739;50.350;7.578;2023-08-06T01:00:19;98665.56;;;16.55;84.62
47883;BME280;37739;50.350;7.578;2023-08-06T01:02:48;98665.56;;;16.55;84.77
47883;BME280;37739;50.350;7.578;2023-08-06T01:05:14;98669.03;;;16.55;84.58
47883;BME280;37739;50.350;7.578;2023-08-06T01:13:36;98669.88;;;16.54;85.07
47883;BME280;37739;50.350;7.578;2023-08-06T01:16:09;98669.88;;;16.56;84.61
47883;BME280;37739;50.350;7.578;2023-08-06T01:18:37;98673.31;;;16.56;84.79
47883;BME280;37739;50.350;7.578;2023-08-06T01:21:06;98662.97;;;16.56;84.95
47883;BME280;37739;50.350;7.578;2023-08-06T01:23:31;98665.56;;;16.56;84.84
47883;BME280;37739;50.350;7.578;2023-08-06T01:31:07;98660.38;;;16.55;84.48
47883;BME280;37739;50.350;7.578;2023-08-06T01:33:42;98656.09;;;16.54;84.38
47883;BME280;37739;50.350;7.578;2023-08-06T01:36:09;98661.25;;;16.55;84.14
47883;BME280;37739;50.350;7.578;2023-08-06T01:38:34;98659.53;;;16.54;84.08
47883;BME280;37739;50.350;7.578;2023-08-06T01:41:02;98651.78;;;16.51;84.22
47883;BME280;37739;50.350;7.578;2023-08-06T01:43:29;98644.88;;;16.52;83.84
47883;BME280;37739;50.350;7.578;2023-08-06T01:45:57;98642.28;;;16.50;83.89
47883;BME280;37739;50.350;7.578;2023-08-06T01:48:22;98640.59;;;16.46;84.17
47883;BME280;37739;50.350;7.578;2023-08-06T01:50:48;98641.50;;;16.40;84.69
47883;BME280;37739;50.350;7.578;2023-08-06T01:53:18;98644.94;;;16.41;84.77
47883;BME280;37739;50.350;7.578;2023-08-06T01:55:49;98644.06;;;16.39;84.96
47883;BME280;37739;50.350;7.578;2023-08-06T01:58:14;98640.63;;;16.38;85.05
47883;BME280;37739;50.350;7.578;2023-08-06T02:00:40;98645.81;;;16.40;85.00
47883;BME280;37739;50.350;7.578;2023-08-06T02:03:08;98631.13;;;16.37;85.26
47883;BME280;37739;50.350;7.578;2023-08-06T02:05:33;98640.63;;;16.38;85.10
47883;BME280;37739;50.350;7.578;2023-08-06T02:07:58;98634.56;;;16.39;85.65
47883;BME280;37739;50.350;7.578;2023-08-06T02:10:24;98631.13;;;16.40;85.79
47883;BME280;37739;50.350;7.578;2023-08-06T02:12:53;98631.13;;;16.42;85.80
47883;BME280;37739;50.350;7.578;2023-08-06T02:15:19;98630.25;;;16.43;85.90
47883;BME280;37739;50.350;7.578;2023-08-06T02:17:46;98625.06;;;16.46;85.65
47883;BME280;37739;50.350;7.578;2023-08-06T02:20:14;98626.78;;;16.47;85.45
47883;BME280;37739;50.350;7.578;2023-08-06T02:22:39;98619.03;;;16.44;85.70
47883;BME280;37739;50.350;7.578;2023-08-06T02:25:05;98623.38;;;16.42;85.88
47883;BME280;37739;50.350;7.578;2023-08-06T02:27:30;98622.47;;;16.41;85.86
47883;BME280;37739;50.350;7.578;2023-08-06T02:29:56;98608.69;;;16.39;86.09
47883;BME280;37739;50.350;7.578;2023-08-06T02:32:21;98608.72;;;16.36;85.95
47883;BME280;37739;50.350;7.578;2023-08-06T02:34:47;98606.16;;;16.33;86.10
47883;BME280;37739;50.350;7.578;2023-08-06T02:37:14;98603.56;;;16.30;86.28
47883;BME280;37739;50.350;7.578;2023-08-06T02:39:39;98598.41;;;16.27;86.52
47883;BME280;37739;50.350;7.578;2023-08-06T02:42:10;98600.16;;;16.25;86.77
47883;BME280;37739;50.350;7.578;2023-08-06T02:44:37;98594.13;;;16.23;86.96
47883;BME280;37739;50.350;7.578;2023-08-06T02:47:05;98589.81;;;16.22;86.94
47883;BME280;37739;50.350;7.578;2023-08-06T02:49:33;98588.09;;;16.19;87.08
47883;BME280;37739;50.350;7.578;2023-08-06T02:52:01;98588.97;;;16.21;87.03
47883;BME280;37739;50.350;7.578;2023-08-06T02:54:28;98588.16;;;16.13;87.43
47883;BME280;37739;50.350;7.578;2023-08-06T02:56:56;98578.59;;;16.18;87.25
47883;BME280;37739;50.350;7.578;2023-08-06T02:59:21;98582.06;;;16.20;86.83
47883;BME280;37739;50.350;7.578;2023-08-06T03:01:46;98570.84;;;16.23;86.38
47883;BME280;37739;50.350;7.578;2023-08-06T03:04:14;98580.31;;;16.24;86.19
47883;BME280;37739;50.350;7.578;2023-08-06T03:06:39;98564.78;;;16.24;86.07
47883;BME280;37739;50.350;7.578;2023-08-06T03:09:05;98568.25;;;16.24;85.95
47883;BME280;37739;50.350;7.578;2023-08-06T03:11:30;98572.53;;;16.24;85.88
47883;BME280;37739;50.350;7.578;2023-08-06T03:13:58;98557.91;;;16.21;86.34
47883;BME280;37739;50.350;7.578;2023-08-06T03:16:23;98564.81;;;16.18;86.61
47883;BME280;37739;50.350;7.578;2023-08-06T03:18:48;98563.13;;;16.15;87.38
47883;BME280;37739;50.350;7.578;2023-08-06T03:21:13;98556.22;;;16.16;87.47
47883;BME280;37739;50.350;7.578;2023-08-06T03:23:41;98551.03;;;16.13;87.61
47883;BME280;37739;50.350;7.578;2023-08-06T03:26:06;98552.78;;;16.10;87.82
47883;BME280;37739;50.350;7.578;2023-08-06T03:28:31;98536.41;;;16.07;88.12
47883;BME280;37739;50.350;7.578;2023-08-06T03:31:04;98549.34;;;16.07;88.70
47883;BME280;37739;50.350;7.578;2023-08-06T03:33:34;98539.03;;;16.05;88.62
47883;BME280;37739;50.350;7.578;2023-08-06T03:35:59;98537.28;;;16.06;88.73
47883;BME280;37739;50.350;7.578;2023-08-06T03:38:25;98539.00;;;16.07;89.19
47883;BME280;37739;50.350;7.578;2023-08-06T03:40:53;98530.38;;;16.08;88.53
47883;BME280;37739;50.350;7.578;2023-08-06T03:43:20;98536.41;;;16.07;89.20
47883;BME280;37739;50.350;7.578;2023-08-06T03:45:46;98531.28;;;16.05;89.39
47883;BME280;37739;50.350;7.578;2023-08-06T03:48:13;98532.13;;;16.07;89.73
47883;BME280;37739;50.350;7.578;2023-08-06T03:50:43;98528.66;;;16.07;89.38
47883;BME280;37739;50.350;7.578;2023-08-06T03:53:09;98532.13;;;16.04;89.33
47883;BME280;37739;50.350;7.578;2023-08-06T03:55:36;98532.97;;;16.05;89.74
47883;BME280;37739;50.350;7.578;2023-08-06T03:58:04;98525.22;;;16.06;89.49
47883;BME280;37739;50.350;7.578;2023-08-06T04:00:31;98527.78;;;16.06;89.56
47883;BME280;37739;50.350;7.578;2023-08-06T04:02:57;98527.78;;;16.06;89.49
47883;BME280;37739;50.350;7.578;2023-08-06T04:05:24;98539.88;;;16.07;89.58
47883;BME280;37739;50.350;7.578;2023-08-06T04:07:52;98530.41;;;16.03;90.20
47883;BME280;37739;50.350;7.578;2023-08-06T04:10:21;98533.88;;;15.99;90.51
47883;BME280;37739;50.350;7.578;2023-08-06T04:12:49;98533.88;;;15.99;90.19
47883;BME280;37739;50.350;7.578;2023-08-06T04:15:14;98531.28;;;16.02;89.93
47883;BME280;37739;50.350;7.578;2023-08-06T04:17:40;98526.09;;;16.04;89.79
47883;BME280;37739;50.350;7.578;2023-08-06T04:20:06;98529.53;;;16.03;89.89
47883;BME280;37739;50.350;7.578;2023-08-06T04:22:31;98523.56;;;15.98;90.64
47883;BME280;37739;50.350;7.578;2023-08-06T04:24:56;98524.41;;;16.00;90.58
47883;BME280;37739;50.350;7.578;2023-08-06T04:27:22;98524.41;;;16.01;90.63
47883;BME280;37739;50.350;7.578;2023-08-06T04:29:47;98523.50;;;16.01;90.55
47883;BME280;37739;50.350;7.578;2023-08-06T04:32:15;98520.94;;;16.02;90.50
47883;BME280;37739;50.350;7.578;2023-08-06T04:34:42;98522.66;;;16.03;90.54
47883;BME280;37739;50.350;7.578;2023-08-06T04:37:10;98525.25;;;16.03;90.65
47883;BME280;37739;50.350;7.578;2023-08-06T04:39:36;98529.53;;;16.06;90.55
47883;BME280;37739;50.350;7.578;2023-08-06T04:42:01;98524.34;;;16.06;90.35
47883;BME280;37739;50.350;7.578;2023-08-06T04:44:27;98532.97;;;16.06;90.93
47883;BME280;37739;50.350;7.578;2023-08-06T04:46:54;98526.06;;;16.07;90.71
47883;BME280;37739;50.350;7.578;2023-08-06T04:49:22;98517.44;;;16.08;90.83
47883;BME280;37739;50.350;7.578;2023-08-06T04:51:48;98527.78;;;16.09;90.91
47883;BME280;37739;50.350;7.578;2023-08-06T04:54:13;98516.56;;;16.14;90.64
47883;BME280;37739;50.350;7.578;2023-08-06T04:56:41;98526.91;;;16.14;90.99
47883;BME280;37739;50.350;7.578;2023-08-06T04:59:06;98523.47;;;16.13;90.70
47883;BME280;37739;50.350;7.578;2023-08-06T05:01:32;98525.16;;;16.14;91.13
47883;BME280;37739;50.350;7.578;2023-08-06T05:03:57;98526.06;;;16.13;90.81
47883;BME280;37739;50.350;7.578;2023-08-06T05:06:22;98529.50;;;16.10;91.24
47883;BME280;37739;50.350;7.578;2023-08-06T05:08:47;98524.31;;;16.10;90.99
47883;BME280;37739;50.350;7.578;2023-08-06T05:11:13;98522.63;;;16.11;90.68
47883;BME280;37739;50.350;7.578;2023-08-06T05:13:38;98522.63;;;16.09;90.59
47883;BME280;37739;50.350;7.578;2023-08-06T05:16:03;98522.63;;;16.09;90.62
47883;BME280;37739;50.350;7.578;2023-08-06T05:18:29;98520.00;;;16.13;90.37
47883;BME280;37739;50.350;7.578;2023-08-06T05:20:58;98520.84;;;16.15;90.39
47883;BME280;37739;50.350;7.578;2023-08-06T05:23:23;98520.00;;;16.14;90.17
47883;BME280;37739;50.350;7.578;2023-08-06T05:25:48;98523.47;;;16.13;89.46
47883;BME280;37739;50.350;7.578;2023-08-06T05:28:16;98520.84;;;16.18;89.14
47883;BME280;37739;50.350;7.578;2023-08-06T05:30:45;98521.69;;;16.20;88.73
47883;BME280;37739;50.350;7.578;2023-08-06T05:33:13;98526.00;;;16.19;88.60
47883;BME280;37739;50.350;7.578;2023-08-06T05:35:40;98532.88;;;16.20;88.61
47883;BME280;37739;50.350;7.578;2023-08-06T05:38:06;98530.28;;;16.22;88.49
47883;BME280;37739;50.350;7.578;2023-08-06T05:40:36;98533.72;;;16.22;88.51
47883;BME280;37739;50.350;7.578;2023-08-06T05:43:03;98533.72;;;16.22;88.54
47883;BME280;37739;50.350;7.578;2023-08-06T05:45:29;98533.72;;;16.22;88.34
47883;BME280;37739;50.350;7.578;2023-08-06T05:47:54;98532.88;;;16.23;88.78
47883;BME280;37739;50.350;7.578;2023-08-06T05:50:22;98538.91;;;16.25;88.61
47883;BME280;37739;50.350;7.578;2023-08-06T05:52:48;98539.75;;;16.26;88.63
47883;BME280;37739;50.350;7.578;2023-08-06T05:55:13;98531.13;;;16.28;88.80
47883;BME280;37739;50.350;7.578;2023-08-06T05:57:38;98539.75;;;16.31;89.15
47883;BME280;37739;50.350;7.578;2023-08-06T06:00:04;98531.94;;;16.34;88.83
47883;BME280;37739;50.350;7.578;2023-08-06T06:02:31;98540.59;;;16.33;88.88
47883;BME280;37739;50.350;7.578;2023-08-06T06:04:59;98539.72;;;16.34;88.90
47883;BME280;37739;50.350;7.578;2023-08-06T06:07:26;98537.97;;;16.40;89.12
47883;BME280;37739;50.350;7.578;2023-08-06T06:09:51;98544.84;;;16.41;88.67
47883;BME280;37739;50.350;7.578;2023-08-06T06:12:17;98538.75;;;16.47;89.74
47883;BME280;37739;50.350;7.578;2023-08-06T06:14:43;98550.84;;;16.45;88.74
47883;BME280;37739;50.350;7.578;2023-08-06T06:17:11;98543.94;;;16.47;89.32
47883;BME280;37739;50.350;7.578;2023-08-06T06:19:41;98546.53;;;16.45;89.67
47883;BME280;37739;50.350;7.578;2023-08-06T06:22:09;98542.25;;;16.43;89.69
47883;BME280;37739;50.350;7.578;2023-08-06T06:24:34;98543.13;;;16.37;89.61
47883;BME280;37739;50.350;7.578;2023-08-06T06:27:00;98549.19;;;16.36;90.20
47883;BME280;37739;50.350;7.578;2023-08-06T06:29:28;98554.34;;;16.42;90.04
47883;BME280;37739;50.350;7.578;2023-08-06T06:31:53;98553.44;;;16.48;90.00
47883;BME280;37739;50.350;7.578;2023-08-06T06:34:22;98554.28;;;16.50;89.56
47883;BME280;37739;50.350;7.578;2023-08-06T06:36:48;98560.34;;;16.46;90.08
47883;BME280;37739;50.350;7.578;2023-08-06T06:39:17;98547.41;;;16.43;90.03
47883;BME280;37739;50.350;7.578;2023-08-06T06:41:43;98548.22;;;16.53;89.70
47883;BME280;37739;50.350;7.578;2023-08-06T06:44:09;98565.44;;;16.57;89.11
47883;BME280;37739;50.350;7.578;2023-08-06T06:46:36;98559.41;;;16.59;89.71
47883;BME280;37739;50.350;7.578;2023-08-06T06:49:04;98564.56;;;16.59;89.11
47883;BME280;37739;50.350;7.578;2023-08-06T06:51:32;98565.44;;;16.60;89.03
47883;BME280;37739;50.350;7.578;2023-08-06T06:53:57;98568.88;;;16.60;88.80
47883;BME280;37739;50.350;7.578;2023-08-06T06:56:25;98572.34;;;16.59;88.23
47883;BME280;37739;50.350;7.578;2023-08-06T06:58:50;98569.75;;;16.59;87.73
47883;BME280;37739;50.350;7.578;2023-08-06T07:01:16;98562.84;;;16.60;87.64
47883;BME280;37739;50.350;7.578;2023-08-06T07:03:41;98566.25;;;16.65;87.39
47883;BME280;37739;50.350;7.578;2023-08-06T07:06:06;98565.38;;;16.69;86.46
47883;BME280;37739;50.350;7.578;2023-08-06T07:08:32;98567.94;;;16.71;86.85
47883;BME280;37739;50.350;7.578;2023-08-06T07:11:06;98571.41;;;16.71;86.80
47883;BME280;37739;50.350;7.578;2023-08-06T07:13:32;98569.66;;;16.72;87.03
47883;BME280;37739;50.350;7.578;2023-08-06T07:16:00;98570.56;;;16.67;86.57
47883;BME280;37739;50.350;7.578;2023-08-06T07:18:28;98568.00;;;16.61;86.81
47883;BME280;37739;50.350;7.578;2023-08-06T07:20:54;98581.81;;;16.65;87.29
47883;BME280;37739;50.350;7.578;2023-08-06T07:23:24;98571.41;;;16.71;87.12
47883;BME280;37739;50.350;7.578;2023-08-06T07:25:52;98574.81;;;16.75;87.00
47883;BME280;37739;50.350;7.578;2023-08-06T07:28:20;98573.09;;;16.74;86.92
47883;BME280;37739;50.350;7.578;2023-08-06T07:30:45;98579.09;;;16.77;87.14
47883;BME280;37739;50.350;7.578;2023-08-06T07:33:13;98576.50;;;16.85;86.52
47883;BME280;37739;50.350;7.578;2023-08-06T07:35:39;98589.34;;;16.97;86.85
47883;BME280;37739;50.350;7.578;2023-08-06T07:38:06;98586.69;;;17.05;86.17
47883;BME280;37739;50.350;7.578;2023-08-06T07:40:34;98587.50;;;17.08;85.83
47883;BME280;37739;50.350;7.578;2023-08-06T07:43:00;98586.66;;;17.10;85.15
47883;BME280;37739;50.350;7.578;2023-08-06T07:45:27;98590.94;;;17.11;85.43
47883;BME280;37739;50.350;7.578;2023-08-06T07:47:55;98584.78;;;17.24;85.32
47883;BME280;37739;50.350;7.578;2023-08-06T07:50:21;98582.09;;;17.35;84.75
47883;BME280;37739;50.350;7.578;2023-08-06T07:52:48;98576.03;;;17.37;84.90
47883;BME280;37739;50.350;7.578;2023-08-06T07:55:13;98578.59;;;17.40;84.78
47883;BME280;37739;50.350;7.578;2023-08-06T07:57:41;98584.69;;;17.35;84.25
47883;BME280;37739;50.350;7.578;2023-08-06T08:00:09;98576.94;;;17.33;84.14
47883;BME280;37739;50.350;7.578;2023-08-06T08:02:34;98582.94;;;17.38;84.47
47883;BME280;37739;50.350;7.578;2023-08-06T08:05:02;98572.56;;;17.38;84.05
47883;BME280;37739;50.350;7.578;2023-08-06T08:07:28;98570.91;;;17.33;84.41
47883;BME280;37739;50.350;7.578;2023-08-06T08:09:56;98571.84;;;17.22;83.86
47883;BME280;37739;50.350;7.578;2023-08-06T08:12:23;98566.63;;;17.27;84.09
47883;BME280;37739;50.350;7.578;2023-08-06T08:14:49;98570.06;;;17.31;84.17
47883;BME280;37739;50.350;7.578;2023-08-06T08:17:18;98568.31;;;17.30;82.81
47883;BME280;37739;50.350;7.578;2023-08-06T08:19:44;98578.69;;;17.28;83.21
47883;BME280;37739;50.350;7.578;2023-08-06T08:22:09;98575.19;;;17.35;82.80
47883;BME280;37739;50.350;7.578;2023-08-06T08:24:34;98576.84;;;17.39;82.44
47883;BME280;37739;50.350;7.578;2023-08-06T08:27:00;98575.84;;;17.54;82.20
47883;BME280;37739;50.350;7.578;2023-08-06T08:29:25;98575.63;;;17.74;81.60
47883;BME280;37739;50.350;7.578;2023-08-06T08:31:50;98578.03;;;17.91;80.22
47883;BME280;37739;50.350;7.578;2023-08-06T08:34:16;98567.16;;;18.31;79.49
47883;BME280;37739;50.350;7.578;2023-08-06T08:36:44;98570.53;;;18.36;78.73
47883;BME280;37739;50.350;7.578;2023-08-06T08:39:13;98573.09;;;18.38;79.13
47883;BME280;37739;50.350;7.578;2023-08-06T08:41:39;98566.00;;;18.49;78.49
47883;BME280;37739;50.350;7.578;2023-08-06T08:44:08;98562.34;;;18.64;76.68
47883;BME280;37739;50.350;7.578;2023-08-06T08:46:38;98570.97;;;18.64;77.25
47883;BME280;37739;50.350;7.578;2023-08-06T08:49:05;98564.84;;;18.70;76.99
47883;BME280;37739;50.350;7.578;2023-08-06T08:51:33;98572.50;;;18.81;77.12
47883;BME280;37739;50.350;7.578;2023-08-06T08:53:58;98563.47;;;19.03;76.21
47883;BME280;37739;50.350;7.578;2023-08-06T08:56:25;98564.91;;;19.20;75.66
47883;BME280;37739;50.350;7.578;2023-08-06T08:58:53;98569.03;;;19.32;75.14
47883;BME280;37739;50.350;7.578;2023-08-06T09:01:22;98574.72;;;19.54;74.23
47883;BME280;37739;50.350;7.578;2023-08-06T09:03:48;98569.00;;;19.80;73.44
47883;BME280;37739;50.350;7.578;2023-08-06T09:06:15;98561.28;;;19.77;72.62
47883;BME280;37739;50.350;7.578;2023-08-06T09:09:01;98570.91;;;19.70;73.00
47883;BME280;37739;50.350;7.578;2023-08-06T09:11:33;98568.44;;;19.62;72.61
47883;BME280;37739;50.350;7.578;2023-08-06T09:14:06;98564.31;;;19.54;72.83
47883;BME280;37739;50.350;7.578;2023-08-06T09:16:34;98573.91;;;19.50;73.00
47883;BME280;37739;50.350;7.578;2023-08-06T09:19:09;98567.03;;;19.46;71.61
47883;BME280;37739;50.350;7.578;2023-08-06T09:21:41;98562.94;;;19.34;71.71
47883;BME280;37739;50.350;7.578;2023-08-06T09:24:11;98570.06;;;19.23;72.98
47883;BME280;37739;50.350;7.578;2023-08-06T09:26:39;98579.84;;;19.07;75.69
47883;BME280;37739;50.350;7.578;2023-08-06T09:29:06;98586.41;;;18.77;79.50
47883;BME280;37739;50.350;7.578;2023-08-06T09:31:46;98601.50;;;18.50;81.93
47883;BME280;37739;50.350;7.578;2023-08-06T09:36:42;98602.13;;;18.04;86.15
47883;BME280;37739;50.350;7.578;2023-08-06T09:39:18;98603.97;;;17.93;88.29
47883;BME280;37739;50.350;7.578;2023-08-06T09:41:47;98612.72;;;17.82;88.21
47883;BME280;37739;50.350;7.578;2023-08-06T09:44:19;98606.78;;;17.71;88.95
47883;BME280;37739;50.350;7.578;2023-08-06T09:46:51;98609.53;;;17.57;87.87
47883;BME280;37739;50.350;7.578;2023-08-06T09:49:25;98613.88;;;17.55;88.88
47883;BME280;37739;50.350;7.578;2023-08-06T09:51:52;98612.00;;;17.66;87.80
47883;BME280;37739;50.350;7.578;2023-08-06T09:54:22;98618.81;;;17.78;88.73
47883;BME280;37739;50.350;7.578;2023-08-06T09:56:48;98625.69;;;17.85;87.98
47883;BME280;37739;50.350;7.578;2023-08-06T09:59:13;98623.09;;;17.84;88.33
47883;BME280;37739;50.350;7.578;2023-08-06T10:01:41;98631.75;;;17.81;88.94
47883;BME280;37739;50.350;7.578;2023-08-06T10:04:07;98645.72;;;17.66;88.92
47883;BME280;37739;50.350;7.578;2023-08-06T10:06:42;98658.06;;;17.44;90.35
47883;BME280;37739;50.350;7.578;2023-08-06T10:09:08;98660.34;;;16.61;94.04
47883;BME280;37739;50.350;7.578;2023-08-06T10:11:37;98666.41;;;16.61;95.88
47883;BME280;37739;50.350;7.578;2023-08-06T10:14:10;98669.84;;;16.62;96.57
47883;BME280;37739;50.350;7.578;2023-08-06T10:16:38;98672.31;;;16.88;96.51
47883;BME280;37739;50.350;7.578;2023-08-06T10:19:07;98674.81;;;16.99;94.79
47883;BME280;37739;50.350;7.578;2023-08-06T10:21:33;98680.13;;;16.74;95.50
47883;BME280;37739;50.350;7.578;2023-08-06T10:23:58;98679.25;;;16.83;96.16
47883;BME280;37739;50.350;7.578;2023-08-06T10:26:30;98683.69;;;16.58;96.19
47883;BME280;37739;50.350;7.578;2023-08-06T10:28:55;98689.78;;;16.46;96.13
47883;BME280;37739;50.350;7.578;2023-08-06T10:31:54;98688.94;;;16.38;96.73
47883;BME280;37739;50.350;7.578;2023-08-06T10:34:22;98688.16;;;16.13;95.66
47883;BME280;37739;50.350;7.578;2023-08-06T10:36:48;98695.88;;;16.28;97.71
47883;BME280;37739;50.350;7.578;2023-08-06T10:39:14;98697.66;;;16.14;97.57
47883;BME280;37739;50.350;7.578;2023-08-06T10:41:42;98705.41;;;16.18;97.05
47883;BME280;37739;50.350;7.578;2023-08-06T10:44:09;98707.13;;;16.18;96.28
47883;BME280;37739;50.350;7.578;2023-08-06T10:46:35;98719.19;;;16.22;95.37
47883;BME280;37739;50.350;7.578;2023-08-06T10:49:01;98718.34;;;16.18;95.16
47883;BME280;37739;50.350;7.578;2023-08-06T10:51:26;98733.03;;;16.01;96.44
47883;BME280;37739;50.350;7.578;2023-08-06T10:53:55;98737.34;;;16.09;96.92
47883;BME280;37739;50.350;7.578;2023-08-06T10:56:24;98739.97;;;15.94;95.38
47883;BME280;37739;50.350;7.578;2023-08-06T10:58:54;98736.53;;;15.80;93.66
47883;BME280;37739;50.350;7.578;2023-08-06T11:01:22;98741.69;;;15.66;92.23
47883;BME280;37739;50.350;7.578;2023-08-06T11:03:53;98751.19;;;15.53;90.64
47883;BME280;37739;50.350;7.578;2023-08-06T11:06:20;98740.84;;;15.38;92.37
47883;BME280;37739;50.350;7.578;2023-08-06T11:08:51;98750.31;;;15.57;92.51
47883;BME280;37739;50.350;7.578;2023-08-06T11:11:17;98766.66;;;15.50;91.87
47883;BME280;37739;50.350;7.578;2023-08-06T11:13:49;98755.47;;;15.49;90.37
47883;BME280;37739;50.350;7.578;2023-08-06T11:18:44;98766.66;;;15.55;90.22
47883;BME280;37739;50.350;7.578;2023-08-06T11:21:09;98781.31;;;15.52;89.96
47883;BME280;37739;50.350;7.578;2023-08-06T11:23:35;98778.72;;;15.37;89.06
47883;BME280;37739;50.350;7.578;2023-08-06T11:26:03;98784.75;;;15.50;89.38
47883;BME280;37739;50.350;7.578;2023-08-06T11:28:31;98797.69;;;15.42;89.52
47883;BME280;37739;50.350;7.578;2023-08-06T11:30:57;98799.41;;;15.48;89.68
47883;BME280;37739;50.350;7.578;2023-08-06T11:33:26;98797.69;;;15.44;89.53
47883;BME280;37739;50.350;7.578;2023-08-06T11:35:54;98795.97;;;15.50;88.54
47883;BME280;37739;50.350;7.578;2023-08-06T11:38:26;98808.88;;;15.46;88.59
47883;BME280;37739;50.350;7.578;2023-08-06T11:40:52;98804.59;;;15.49;86.60
47883;BME280;37739;50.350;7.578;2023-08-06T11:43:20;98815.78;;;15.51;86.87
47883;BME280;37739;50.350;7.578;2023-08-06T11:45:50;98819.22;;;15.44;85.45
47883;BME280;37739;50.350;7.578;2023-08-06T11:48:21;98821.78;;;15.34;85.75
47883;BME280;37739;50.350;7.578;2023-08-06T11:50:47;98830.41;;;15.37;86.08
47883;BME280;37739;50.350;7.578;2023-08-06T11:53:13;98830.44;;;15.48;87.77
47883;BME280;37739;50.350;7.578;2023-08-06T11:55:39;98840.66;;;15.06;86.91
47883;BME280;37739;50.350;7.578;2023-08-06T11:58:05;98847.56;;;15.18;87.28
47883;BME280;37739;50.350;7.578;2023-08-06T12:00:31;98846.72;;;15.19;87.92
47883;BME280;37739;50.350;7.578;2023-08-06T12:02:59;98856.22;;;15.26;88.62
47883;BME280;37739;50.350;7.578;2023-08-06T12:05:33;98845.03;;;15.34;87.90
47883;BME280;37739;50.350;7.578;2023-08-06T12:08:00;98857.09;;;15.27;89.40
47883;BME280;37739;50.350;7.578;2023-08-06T12:10:27;98851.06;;;15.43;88.46
47883;BME280;37739;50.350;7.578;2023-08-06T12:12:54;98852.81;;;15.57;88.13
47883;BME280;37739;50.350;7.578;2023-08-06T12:15:20;98851.19;;;15.79;87.64
47883;BME280;37739;50.350;7.578;2023-08-06T12:17:46;98857.13;;;15.47;84.21
47883;BME280;37739;50.350;7.578;2023-08-06T12:20:13;98863.16;;;15.43;86.86
47883;BME280;37739;50.350;7.578;2023-08-06T12:22:39;98868.34;;;15.47;84.90
47883;BME280;37739;50.350;7.578;2023-08-06T12:25:09;98876.94;;;15.52;85.91
47883;BME280;37739;50.350;7.578;2023-08-06T12:27:40;98874.41;;;15.62;86.38
47883;BME280;37739;50.350;7.578;2023-08-06T12:30:06;98886.50;;;15.80;85.78
47883;BME280;37739;50.350;7.578;2023-08-06T12:32:33;98881.38;;;15.94;85.07
47883;BME280;37739;50.350;7.578;2023-08-06T12:34:59;98895.16;;;16.00;85.20
47883;BME280;37739;50.350;7.578;2023-08-06T12:37:25;98896.00;;;15.92;85.54
47883;BME280;37739;50.350;7.578;2023-08-06T12:39:53;98895.16;;;15.88;85.60
47883;BME280;37739;50.350;7.578;2023-08-06T12:42:18;98897.72;;;15.91;86.29
47883;BME280;37739;50.350;7.578;2023-08-06T12:44:52;98903.75;;;15.93;87.25
47883;BME280;37739;50.350;7.578;2023-08-06T12:47:18;98900.31;;;15.91;87.21
47883;BME280;37739;50.350;7.578;2023-08-06T12:49:43;98903.78;;;15.88;87.50
47883;BME280;37739;50.350;7.578;2023-08-06T12:52:09;98901.19;;;15.88;88.67
47883;BME280;37739;50.350;7.578;2023-08-06T12:54:35;98909.78;;;15.80;89.27
47883;BME280;37739;50.350;7.578;2023-08-06T12:57:06;98913.25;;;15.83;89.04
47883;BME280;37739;50.350;7.578;2023-08-06T12:59:32;98920.16;;;15.83;90.12
47883;BME280;37739;50.350;7.578;2023-08-06T13:01:58;98915.81;;;15.89;90.30
47883;BME280;37739;50.350;7.578;2023-08-06T13:04:26;98927.03;;;15.93;89.88
47883;BME280;37739;50.350;7.578;2023-08-06T13:06:52;98936.56;;;16.00;90.22
47883;BME280;37739;50.350;7.578;2023-08-06T13:09:19;98932.25;;;16.05;90.14
47883;BME280;37739;50.350;7.578;2023-08-06T13:11:46;98935.69;;;16.06;89.39
47883;BME280;37739;50.350;7.578;2023-08-06T13:14:17;98943.44;;;15.94;91.79
47883;BME280;37739;50.350;7.578;2023-08-06T13:16:43;98934.81;;;15.95;91.82